sensor_id;sensor_type;location;lat;lon;timestamp;P1;durP1;ratioP1;P2;durP2;ratioP2
50429;SDS011;36359;41.556;-8.418;2022-11-30T00:00:13;39.13;;;27.07;;
50429;SDS011;36359;41.556;-8.418;2022-11-30T00:02:39;32.33;;;26.57;;
50429;SDS011;36359;41.556;-8.418;2022-11-30T00:05:05;33.10;;;22.50;;
50429;SDS011;36359;41.556;-8.418;2022-11-30T00:07:31;29.90;;;21.00;;
50429;SDS011;36359;41.556;-8.418;2022-11-30T00:09:58;28.93;;;19.73;;
50429;SDS011;36359;41.556;-8.418;2022-11-30T00:12:23;30.13;;;20.03;;
50429;SDS011;36359;41.556;-8.418;2022-11-30T00:14:49;25.83;;;17.40;;
50429;SDS011;36359;41.556;-8.418;2022-11-30T00:17:15;25.97;;;15.43;;
50429;SDS011;36359;41.556;-8.418;2022-11-30T00:19:44;23.00;;;14.13;;
50429;SDS011;36359;41.556;-8.418;2022-11-30T00:22:09;25.30;;;14.90;;
50429;SDS011;36359;41.556;-8.418;2022-11-30T00:24:35;25.67;;;16.87;;
50429;SDS011;36359;41.556;-8.418;2022-11-30T00:27:01;26.90;;;15.83;;
50429;SDS011;36359;41.556;-8.418;2022-11-30T00:29:27;29.83;;;21.73;;
50429;SDS011;36359;41.556;-8.418;2022-11-30T00:31:53;47.80;;;34.53;;
50429;SDS011;36359;41.556;-8.418;2022-11-30T00:34:20;39.53;;;30.43;;
50429;SDS011;36359;41.556;-8.418;2022-11-30T00:36:46;47.93;;;34.90;;
50429;SDS011;36359;41.556;-8.418;2022-11-30T00:39:12;48.97;;;35.53;;
50429;SDS011;36359;41.556;-8.418;2022-11-30T00:41:38;42.20;;;32.43;;
50429;SDS011;36359;41.556;-8.418;2022-11-30T00:44:04;35.63;;;26.20;;
50429;SDS011;36359;41.556;-8.418;2022-11-30T00:46:30;36.30;;;24.07;;
50429;SDS011;36359;41.556;-8.418;2022-11-30T00:48:56;27.57;;;18.93;;
50429;SDS011;36359;41.556;-8.418;2022-11-30T00:51:21;25.67;;;17.93;;
50429;SDS011;36359;41.556;-8.418;2022-11-30T00:53:47;23.90;;;17.63;;
50429;SDS011;36359;41.556;-8.418;2022-11-30T00:56:13;40.27;;;30.30;;
50429;SDS011;36359;41.556;-8.418;2022-11-30T00:58:39;44.40;;;33.40;;
50429;SDS011;36359;41.556;-8.418;2022-11-30T01:01:05;40.50;;;31.70;;
50429;SDS011;36359;41.556;-8.418;2022-11-30T01:03:32;45.33;;;32.20;;
50429;SDS011;36359;41.556;-8.418;2022-11-30T01:06:02;43.20;;;31.93;;
50429;SDS011;36359;41.556;-8.418;2022-11-30T01:08:29;41.88;;;32.45;;
50429;SDS011;36359;41.556;-8.418;2022-11-30T01:13:27;38.17;;;26.97;;
50429;SDS011;36359;41.556;-8.418;2022-11-30T01:15:52;31.03;;;22.10;;
50429;SDS011;36359;41.556;-8.418;2022-11-30T01:18:18;32.53;;;24.53;;
50429;SDS011;36359;41.556;-8.418;2022-11-30T01:20:44;31.63;;;21.93;;
50429;SDS011;36359;41.556;-8.418;2022-11-30T01:23:10;26.50;;;20.30;;
50429;SDS011;36359;41.556;-8.418;2022-11-30T01:25:36;28.20;;;20.03;;
50429;SDS011;36359;41.556;-8.418;2022-11-30T01:28:01;28.10;;;19.27;;
50429;SDS011;36359;41.556;-8.418;2022-11-30T01:30:27;25.23;;;17.97;;
50429;SDS011;36359;41.556;-8.418;2022-11-30T01:32:53;27.83;;;17.30;;
50429;SDS011;36359;41.556;-8.418;2022-11-30T01:35:19;24.00;;;16.63;;
50429;SDS011;36359;41.556;-8.418;2022-11-30T01:37:45;24.57;;;15.97;;
50429;SDS011;36359;41.556;-8.418;2022-11-30T01:40:10;19.87;;;14.07;;
50429;SDS011;36359;41.556;-8.418;2022-11-30T01:42:36;24.23;;;14.97;;
50429;SDS011;36359;41.556;-8.418;2022-11-30T01:45:03;24.77;;;13.57;;
50429;SDS011;36359;41.556;-8.418;2022-11-30T01:47:34;22.37;;;14.23;;
50429;SDS011;36359;41.556;-8.418;2022-11-30T01:50:36;23.67;;;15.23;;
50429;SDS011;36359;41.556;-8.418;2022-11-30T01:52:58;22.30;;;16.57;;
50429;SDS011;36359;41.556;-8.418;2022-11-30T01:55:28;25.67;;;15.10;;
50429;SDS011;36359;41.556;-8.418;2022-11-30T02:00:25;20.63;;;12.90;;
50429;SDS011;36359;41.556;-8.418;2022-11-30T02:05:40;17.60;;;11.53;;
50429;SDS011;36359;41.556;-8.418;2022-11-30T02:08:07;19.57;;;10.50;;
50429;SDS011;36359;41.556;-8.418;2022-11-30T02:10:35;15.90;;;10.70;;
50429;SDS011;36359;41.556;-8.418;2022-11-30T02:16:23;23.27;;;15.93;;
50429;SDS011;36359;41.556;-8.418;2022-11-30T02:30:10;17.33;;;11.20;;
50429;SDS011;36359;41.556;-8.418;2022-11-30T02:32:44;17.90;;;11.13;;
50429;SDS011;36359;41.556;-8.418;2022-11-30T02:35:29;18.97;;;9.83;;
50429;SDS011;36359;41.556;-8.418;2022-11-30T02:37:59;16.63;;;10.27;;
50429;SDS011;36359;41.556;-8.418;2022-11-30T02:40:26;16.73;;;11.17;;
50429;SDS011;36359;41.556;-8.418;2022-11-30T02:42:52;19.93;;;11.37;;
50429;SDS011;36359;41.556;-8.418;2022-11-30T02:45:21;17.67;;;11.47;;
50429;SDS011;36359;41.556;-8.418;2022-11-30T02:48:10;14.43;;;9.50;;
50429;SDS011;36359;41.556;-8.418;2022-11-30T02:50:59;16.20;;;10.30;;
50429;SDS011;36359;41.556;-8.418;2022-11-30T02:53:26;16.67;;;9.40;;
50429;SDS011;36359;41.556;-8.418;2022-11-30T02:55:53;14.63;;;9.47;;
50429;SDS011;36359;41.556;-8.418;2022-11-30T02:58:19;16.80;;;8.60;;
50429;SDS011;36359;41.556;-8.418;2022-11-30T03:00:45;16.63;;;9.93;;
50429;SDS011;36359;41.556;-8.418;2022-11-30T03:03:11;16.77;;;9.30;;
50429;SDS011;36359;41.556;-8.418;2022-11-30T03:05:37;16.30;;;8.00;;
50429;SDS011;36359;41.556;-8.418;2022-11-30T03:08:03;14.90;;;8.00;;
50429;SDS011;36359;41.556;-8.418;2022-11-30T03:10:29;11.87;;;8.10;;
50429;SDS011;36359;41.556;-8.418;2022-11-30T03:12:57;18.60;;;9.17;;
50429;SDS011;36359;41.556;-8.418;2022-11-30T03:15:24;13.57;;;8.80;;
50429;SDS011;36359;41.556;-8.418;2022-11-30T03:17:50;12.83;;;7.73;;
50429;SDS011;36359;41.556;-8.418;2022-11-30T03:20:16;14.80;;;7.90;;
50429;SDS011;36359;41.556;-8.418;2022-11-30T03:22:41;17.73;;;9.17;;
50429;SDS011;36359;41.556;-8.418;2022-11-30T03:25:07;26.07;;;19.13;;
50429;SDS011;36359;41.556;-8.418;2022-11-30T03:27:33;28.47;;;21.37;;
50429;SDS011;36359;41.556;-8.418;2022-11-30T03:29:59;26.57;;;20.50;;
50429;SDS011;36359;41.556;-8.418;2022-11-30T03:32:25;30.70;;;21.93;;
50429;SDS011;36359;41.556;-8.418;2022-11-30T03:34:50;24.93;;;18.50;;
50429;SDS011;36359;41.556;-8.418;2022-11-30T03:37:16;26.40;;;17.00;;
50429;SDS011;36359;41.556;-8.418;2022-11-30T03:39:42;25.23;;;17.50;;
50429;SDS011;36359;41.556;-8.418;2022-11-30T03:42:08;21.43;;;14.77;;
50429;SDS011;36359;41.556;-8.418;2022-11-30T03:44:33;17.97;;;12.50;;
50429;SDS011;36359;41.556;-8.418;2022-11-30T03:46:59;18.73;;;10.53;;
50429;SDS011;36359;41.556;-8.418;2022-11-30T03:49:25;16.77;;;10.00;;
50429;SDS011;36359;41.556;-8.418;2022-11-30T03:51:50;15.43;;;9.43;;
50429;SDS011;36359;41.556;-8.418;2022-11-30T03:54:16;14.87;;;9.17;;
50429;SDS011;36359;41.556;-8.418;2022-11-30T03:56:42;15.27;;;8.30;;
50429;SDS011;36359;41.556;-8.418;2022-11-30T03:59:08;13.27;;;7.47;;
50429;SDS011;36359;41.556;-8.418;2022-11-30T04:01:33;13.90;;;7.50;;
50429;SDS011;36359;41.556;-8.418;2022-11-30T04:04:01;18.30;;;7.63;;
50429;SDS011;36359;41.556;-8.418;2022-11-30T04:06:26;13.57;;;7.87;;
50429;SDS011;36359;41.556;-8.418;2022-11-30T04:08:52;15.10;;;7.03;;
50429;SDS011;36359;41.556;-8.418;2022-11-30T04:11:18;14.97;;;7.70;;
50429;SDS011;36359;41.556;-8.418;2022-11-30T04:13:43;17.67;;;10.57;;
50429;SDS011;36359;41.556;-8.418;2022-11-30T04:16:09;27.77;;;20.60;;
50429;SDS011;36359;41.556;-8.418;2022-11-30T04:18:35;27.73;;;21.70;;
50429;SDS011;36359;41.556;-8.418;2022-11-30T04:21:02;34.87;;;28.83;;
50429;SDS011;36359;41.556;-8.418;2022-11-30T04:23:29;41.13;;;33.67;;
50429;SDS011;36359;41.556;-8.418;2022-11-30T04:25:57;38.27;;;33.43;;
50429;SDS011;36359;41.556;-8.418;2022-11-30T04:28:22;32.93;;;26.80;;
50429;SDS011;36359;41.556;-8.418;2022-11-30T04:30:48;38.57;;;28.57;;
50429;SDS011;36359;41.556;-8.418;2022-11-30T04:33:14;33.53;;;27.40;;
50429;SDS011;36359;41.556;-8.418;2022-11-30T04:35:42;30.50;;;24.57;;
50429;SDS011;36359;41.556;-8.418;2022-11-30T04:38:09;30.13;;;19.37;;
50429;SDS011;36359;41.556;-8.418;2022-11-30T04:40:39;25.33;;;18.20;;
50429;SDS011;36359;41.556;-8.418;2022-11-30T04:43:05;22.90;;;16.03;;
50429;SDS011;36359;41.556;-8.418;2022-11-30T04:45:31;16.33;;;11.87;;
50429;SDS011;36359;41.556;-8.418;2022-11-30T04:47:56;18.47;;;13.10;;
50429;SDS011;36359;41.556;-8.418;2022-11-30T04:50:22;18.37;;;12.10;;
50429;SDS011;36359;41.556;-8.418;2022-11-30T04:52:48;17.50;;;12.17;;
50429;SDS011;36359;41.556;-8.418;2022-11-30T04:55:14;19.27;;;10.90;;
50429;SDS011;36359;41.556;-8.418;2022-11-30T04:57:43;16.23;;;8.60;;
50429;SDS011;36359;41.556;-8.418;2022-11-30T05:00:10;16.20;;;8.60;;
50429;SDS011;36359;41.556;-8.418;2022-11-30T05:02:37;13.63;;;8.10;;
50429;SDS011;36359;41.556;-8.418;2022-11-30T05:05:03;12.80;;;8.40;;
50429;SDS011;36359;41.556;-8.418;2022-11-30T05:07:29;12.70;;;6.53;;
50429;SDS011;36359;41.556;-8.418;2022-11-30T05:09:54;11.90;;;6.70;;
50429;SDS011;36359;41.556;-8.418;2022-11-30T05:12:20;12.47;;;6.40;;
50429;SDS011;36359;41.556;-8.418;2022-11-30T05:14:46;16.47;;;6.10;;
50429;SDS011;36359;41.556;-8.418;2022-11-30T05:17:12;11.13;;;7.27;;
50429;SDS011;36359;41.556;-8.418;2022-11-30T05:19:37;12.93;;;6.40;;
50429;SDS011;36359;41.556;-8.418;2022-11-30T05:22:03;11.87;;;5.33;;
50429;SDS011;36359;41.556;-8.418;2022-11-30T05:24:29;8.37;;;5.13;;
50429;SDS011;36359;41.556;-8.418;2022-11-30T05:26:54;13.70;;;6.27;;
50429;SDS011;36359;41.556;-8.418;2022-11-30T05:29:20;13.70;;;6.73;;
50429;SDS011;36359;41.556;-8.418;2022-11-30T05:31:46;14.73;;;6.60;;
50429;SDS011;36359;41.556;-8.418;2022-11-30T05:34:12;16.10;;;7.30;;
50429;SDS011;36359;41.556;-8.418;2022-11-30T05:36:37;14.93;;;7.47;;
50429;SDS011;36359;41.556;-8.418;2022-11-30T05:39:03;14.10;;;5.93;;
50429;SDS011;36359;41.556;-8.418;2022-11-30T05:41:29;12.80;;;5.07;;
50429;SDS011;36359;41.556;-8.418;2022-11-30T05:43:55;14.87;;;5.50;;
50429;SDS011;36359;41.556;-8.418;2022-11-30T05:46:21;10.90;;;4.17;;
50429;SDS011;36359;41.556;-8.418;2022-11-30T05:48:47;11.03;;;4.23;;
50429;SDS011;36359;41.556;-8.418;2022-11-30T05:51:17;10.57;;;5.30;;
50429;SDS011;36359;41.556;-8.418;2022-11-30T05:53:44;12.73;;;4.33;;
50429;SDS011;36359;41.556;-8.418;2022-11-30T05:56:12;10.33;;;4.17;;
50429;SDS011;36359;41.556;-8.418;2022-11-30T05:58:40;10.60;;;4.30;;
50429;SDS011;36359;41.556;-8.418;2022-11-30T06:01:07;9.53;;;4.30;;
50429;SDS011;36359;41.556;-8.418;2022-11-30T06:03:33;18.37;;;9.07;;
50429;SDS011;36359;41.556;-8.418;2022-11-30T06:06:00;16.80;;;11.07;;
50429;SDS011;36359;41.556;-8.418;2022-11-30T06:08:26;16.93;;;9.60;;
50429;SDS011;36359;41.556;-8.418;2022-11-30T06:10:52;13.67;;;8.67;;
50429;SDS011;36359;41.556;-8.418;2022-11-30T06:13:18;13.37;;;8.13;;
50429;SDS011;36359;41.556;-8.418;2022-11-30T06:15:44;10.93;;;7.20;;
50429;SDS011;36359;41.556;-8.418;2022-11-30T06:18:11;13.37;;;5.93;;
50429;SDS011;36359;41.556;-8.418;2022-11-30T06:20:37;14.10;;;5.87;;
50429;SDS011;36359;41.556;-8.418;2022-11-30T06:23:04;18.50;;;5.40;;
50429;SDS011;36359;41.556;-8.418;2022-11-30T06:25:30;12.03;;;7.70;;
50429;SDS011;36359;41.556;-8.418;2022-11-30T06:27:55;8.70;;;6.00;;
50429;SDS011;36359;41.556;-8.418;2022-11-30T06:30:21;10.43;;;5.57;;
50429;SDS011;36359;41.556;-8.418;2022-11-30T06:32:48;11.50;;;5.27;;
50429;SDS011;36359;41.556;-8.418;2022-11-30T06:35:15;10.90;;;4.27;;
50429;SDS011;36359;41.556;-8.418;2022-11-30T06:37:42;13.43;;;4.10;;
50429;SDS011;36359;41.556;-8.418;2022-11-30T06:40:08;9.87;;;4.77;;
50429;SDS011;36359;41.556;-8.418;2022-11-30T06:42:35;13.63;;;5.60;;
50429;SDS011;36359;41.556;-8.418;2022-11-30T06:45:03;10.30;;;4.43;;
50429;SDS011;36359;41.556;-8.418;2022-11-30T06:47:30;9.77;;;4.07;;
50429;SDS011;36359;41.556;-8.418;2022-11-30T06:49:56;9.53;;;4.70;;
50429;SDS011;36359;41.556;-8.418;2022-11-30T06:52:22;10.87;;;3.87;;
50429;SDS011;36359;41.556;-8.418;2022-11-30T06:54:49;11.80;;;4.73;;
50429;SDS011;36359;41.556;-8.418;2022-11-30T06:57:15;8.50;;;5.00;;
50429;SDS011;36359;41.556;-8.418;2022-11-30T06:59:41;9.40;;;3.90;;
50429;SDS011;36359;41.556;-8.418;2022-11-30T07:02:14;10.17;;;4.47;;
50429;SDS011;36359;41.556;-8.418;2022-11-30T07:04:40;7.80;;;3.97;;
50429;SDS011;36359;41.556;-8.418;2022-11-30T07:07:06;8.80;;;3.13;;
50429;SDS011;36359;41.556;-8.418;2022-11-30T07:09:33;11.80;;;4.50;;
50429;SDS011;36359;41.556;-8.418;2022-11-30T07:12:00;9.53;;;4.33;;
50429;SDS011;36359;41.556;-8.418;2022-11-30T07:14:26;9.87;;;3.90;;
50429;SDS011;36359;41.556;-8.418;2022-11-30T07:16:52;13.43;;;4.90;;
50429;SDS011;36359;41.556;-8.418;2022-11-30T07:19:30;8.40;;;4.10;;
50429;SDS011;36359;41.556;-8.418;2022-11-30T07:21:58;9.05;;;4.75;;
50429;SDS011;36359;41.556;-8.418;2022-11-30T07:24:27;13.67;;;3.97;;
50429;SDS011;36359;41.556;-8.418;2022-11-30T07:27:12;8.40;;;3.47;;
50429;SDS011;36359;41.556;-8.418;2022-11-30T07:29:46;12.13;;;3.53;;
50429;SDS011;36359;41.556;-8.418;2022-11-30T07:32:18;9.83;;;3.47;;
50429;SDS011;36359;41.556;-8.418;2022-11-30T07:34:44;8.10;;;3.80;;
50429;SDS011;36359;41.556;-8.418;2022-11-30T07:37:16;9.50;;;4.07;;
50429;SDS011;36359;41.556;-8.418;2022-11-30T07:39:42;8.30;;;3.77;;
50429;SDS011;36359;41.556;-8.418;2022-11-30T07:42:08;9.80;;;3.13;;
50429;SDS011;36359;41.556;-8.418;2022-11-30T07:44:42;11.07;;;4.23;;
50429;SDS011;36359;41.556;-8.418;2022-11-30T07:47:07;9.77;;;5.00;;
50429;SDS011;36359;41.556;-8.418;2022-11-30T07:49:33;10.27;;;4.90;;
50429;SDS011;36359;41.556;-8.418;2022-11-30T07:51:59;11.07;;;3.40;;
50429;SDS011;36359;41.556;-8.418;2022-11-30T07:54:25;9.27;;;4.00;;
50429;SDS011;36359;41.556;-8.418;2022-11-30T07:56:53;9.03;;;5.00;;
50429;SDS011;36359;41.556;-8.418;2022-11-30T07:59:23;9.90;;;3.50;;
50429;SDS011;36359;41.556;-8.418;2022-11-30T08:01:49;8.77;;;3.60;;
50429;SDS011;36359;41.556;-8.418;2022-11-30T08:04:15;6.90;;;3.50;;
50429;SDS011;36359;41.556;-8.418;2022-11-30T08:06:40;8.20;;;4.63;;
50429;SDS011;36359;41.556;-8.418;2022-11-30T08:09:10;7.40;;;3.00;;
50429;SDS011;36359;41.556;-8.418;2022-11-30T08:11:37;7.40;;;3.60;;
50429;SDS011;36359;41.556;-8.418;2022-11-30T08:14:04;6.30;;;3.23;;
50429;SDS011;36359;41.556;-8.418;2022-11-30T08:16:34;6.30;;;2.73;;
50429;SDS011;36359;41.556;-8.418;2022-11-30T08:19:04;6.83;;;3.80;;
50429;SDS011;36359;41.556;-8.418;2022-11-30T08:21:30;9.37;;;5.00;;
50429;SDS011;36359;41.556;-8.418;2022-11-30T08:23:57;8.80;;;4.73;;
50429;SDS011;36359;41.556;-8.418;2022-11-30T08:26:35;10.33;;;5.33;;
50429;SDS011;36359;41.556;-8.418;2022-11-30T08:29:03;10.13;;;5.17;;
50429;SDS011;36359;41.556;-8.418;2022-11-30T08:31:31;10.53;;;4.73;;
50429;SDS011;36359;41.556;-8.418;2022-11-30T08:34:00;7.00;;;3.80;;
50429;SDS011;36359;41.556;-8.418;2022-11-30T08:36:28;6.90;;;3.57;;
50429;SDS011;36359;41.556;-8.418;2022-11-30T08:38:58;6.20;;;3.13;;
50429;SDS011;36359;41.556;-8.418;2022-11-30T08:41:25;10.23;;;4.28;;
50429;SDS011;36359;41.556;-8.418;2022-11-30T08:43:51;8.67;;;3.37;;
50429;SDS011;36359;41.556;-8.418;2022-11-30T08:46:18;9.10;;;3.57;;
50429;SDS011;36359;41.556;-8.418;2022-11-30T08:48:46;9.00;;;3.40;;
50429;SDS011;36359;41.556;-8.418;2022-11-30T08:51:12;11.00;;;3.70;;
50429;SDS011;36359;41.556;-8.418;2022-11-30T08:53:40;12.10;;;3.97;;
50429;SDS011;36359;41.556;-8.418;2022-11-30T08:56:07;17.40;;;4.40;;
50429;SDS011;36359;41.556;-8.418;2022-11-30T08:58:36;17.33;;;5.27;;
50429;SDS011;36359;41.556;-8.418;2022-11-30T09:03:31;19.10;;;5.60;;
50429;SDS011;36359;41.556;-8.418;2022-11-30T09:06:02;12.20;;;4.43;;
50429;SDS011;36359;41.556;-8.418;2022-11-30T09:08:33;11.70;;;3.60;;
50429;SDS011;36359;41.556;-8.418;2022-11-30T09:11:18;6.80;;;3.43;;
50429;SDS011;36359;41.556;-8.418;2022-11-30T09:13:49;7.70;;;2.97;;
50429;SDS011;36359;41.556;-8.418;2022-11-30T09:16:18;8.67;;;3.10;;
50429;SDS011;36359;41.556;-8.418;2022-11-30T09:18:45;8.33;;;2.67;;
50429;SDS011;36359;41.556;-8.418;2022-11-30T09:21:14;11.17;;;3.57;;
50429;SDS011;36359;41.556;-8.418;2022-11-30T09:23:43;14.33;;;5.17;;
50429;SDS011;36359;41.556;-8.418;2022-11-30T09:26:11;9.17;;;3.57;;
50429;SDS011;36359;41.556;-8.418;2022-11-30T09:28:39;11.27;;;3.87;;
50429;SDS011;36359;41.556;-8.418;2022-11-30T09:31:16;9.43;;;3.20;;
50429;SDS011;36359;41.556;-8.418;2022-11-30T09:33:43;10.00;;;3.63;;
50429;SDS011;36359;41.556;-8.418;2022-11-30T09:36:10;11.13;;;4.13;;
50429;SDS011;36359;41.556;-8.418;2022-11-30T09:38:38;11.40;;;3.53;;
50429;SDS011;36359;41.556;-8.418;2022-11-30T09:46:16;11.90;;;4.50;;
50429;SDS011;36359;41.556;-8.418;2022-11-30T09:48:50;12.27;;;3.53;;
50429;SDS011;36359;41.556;-8.418;2022-11-30T09:51:25;11.43;;;4.00;;
50429;SDS011;36359;41.556;-8.418;2022-11-30T09:57:32;8.77;;;3.60;;
50429;SDS011;36359;41.556;-8.418;2022-11-30T09:59:59;8.80;;;3.53;;
50429;SDS011;36359;41.556;-8.418;2022-11-30T10:02:37;11.10;;;3.83;;
50429;SDS011;36359;41.556;-8.418;2022-11-30T10:10:40;6.97;;;2.13;;
50429;SDS011;36359;41.556;-8.418;2022-11-30T10:19:21;5.47;;;2.80;;
50429;SDS011;36359;41.556;-8.418;2022-11-30T10:22:04;6.13;;;2.27;;
50429;SDS011;36359;41.556;-8.418;2022-11-30T10:24:54;10.30;;;3.90;;
50429;SDS011;36359;41.556;-8.418;2022-11-30T10:27:54;7.83;;;2.40;;
50429;SDS011;36359;41.556;-8.418;2022-11-30T10:30:35;6.13;;;2.17;;
50429;SDS011;36359;41.556;-8.418;2022-11-30T10:33:10;6.43;;;2.70;;
50429;SDS011;36359;41.556;-8.418;2022-11-30T10:35:45;9.07;;;3.10;;
50429;SDS011;36359;41.556;-8.418;2022-11-30T10:40:49;9.27;;;3.33;;
50429;SDS011;36359;41.556;-8.418;2022-11-30T10:43:32;6.57;;;2.63;;
50429;SDS011;36359;41.556;-8.418;2022-11-30T10:46:09;5.47;;;2.33;;
50429;SDS011;36359;41.556;-8.418;2022-11-30T10:48:44;8.47;;;2.30;;
50429;SDS011;36359;41.556;-8.418;2022-11-30T10:51:16;5.63;;;2.23;;
50429;SDS011;36359;41.556;-8.418;2022-11-30T10:54:13;5.70;;;2.23;;
50429;SDS011;36359;41.556;-8.418;2022-11-30T10:56:40;5.90;;;2.70;;
50429;SDS011;36359;41.556;-8.418;2022-11-30T10:59:49;5.87;;;1.97;;
50429;SDS011;36359;41.556;-8.418;2022-11-30T11:02:00;7.00;;;2.93;;
50429;SDS011;36359;41.556;-8.418;2022-11-30T11:04:26;5.13;;;2.37;;
50429;SDS011;36359;41.556;-8.418;2022-11-30T11:09:34;3.77;;;1.73;;
50429;SDS011;36359;41.556;-8.418;2022-11-30T11:12:03;7.80;;;2.23;;
50429;SDS011;36359;41.556;-8.418;2022-11-30T11:14:30;5.27;;;2.27;;
50429;SDS011;36359;41.556;-8.418;2022-11-30T11:16:58;6.43;;;2.53;;
50429;SDS011;36359;41.556;-8.418;2022-11-30T11:22:02;5.13;;;2.40;;
50429;SDS011;36359;41.556;-8.418;2022-11-30T11:24:31;6.78;;;1.73;;
50429;SDS011;36359;41.556;-8.418;2022-11-30T11:26:58;7.60;;;2.83;;
50429;SDS011;36359;41.556;-8.418;2022-11-30T11:29:32;4.77;;;2.23;;
50429;SDS011;36359;41.556;-8.418;2022-11-30T11:32:20;4.00;;;1.40;;
50429;SDS011;36359;41.556;-8.418;2022-11-30T11:34:49;5.57;;;1.77;;
50429;SDS011;36359;41.556;-8.418;2022-11-30T11:37:16;6.67;;;1.87;;
50429;SDS011;36359;41.556;-8.418;2022-11-30T11:39:53;7.43;;;2.03;;
50429;SDS011;36359;41.556;-8.418;2022-11-30T11:42:35;4.23;;;1.80;;
50429;SDS011;36359;41.556;-8.418;2022-11-30T11:45:31;4.73;;;1.60;;
50429;SDS011;36359;41.556;-8.418;2022-11-30T11:48:03;5.33;;;1.30;;
50429;SDS011;36359;41.556;-8.418;2022-11-30T11:50:36;2.40;;;1.20;;
50429;SDS011;36359;41.556;-8.418;2022-11-30T11:55:52;4.73;;;1.70;;
50429;SDS011;36359;41.556;-8.418;2022-11-30T12:04:38;13.63;;;7.73;;
50429;SDS011;36359;41.556;-8.418;2022-11-30T12:07:12;3.63;;;1.60;;
50429;SDS011;36359;41.556;-8.418;2022-11-30T12:09:58;3.30;;;1.60;;
50429;SDS011;36359;41.556;-8.418;2022-11-30T12:12:41;2.70;;;1.90;;
50429;SDS011;36359;41.556;-8.418;2022-11-30T12:15:08;4.73;;;1.70;;
50429;SDS011;36359;41.556;-8.418;2022-11-30T12:17:45;2.53;;;1.30;;
50429;SDS011;36359;41.556;-8.418;2022-11-30T12:23:25;7.20;;;1.67;;
50429;SDS011;36359;41.556;-8.418;2022-11-30T12:26:06;7.20;;;2.27;;
50429;SDS011;36359;41.556;-8.418;2022-11-30T12:31:59;12.23;;;5.07;;
50429;SDS011;36359;41.556;-8.418;2022-11-30T12:37:47;8.77;;;3.33;;
50429;SDS011;36359;41.556;-8.418;2022-11-30T12:45:51;8.77;;;3.70;;
50429;SDS011;36359;41.556;-8.418;2022-11-30T12:54:03;4.90;;;1.97;;
50429;SDS011;36359;41.556;-8.418;2022-11-30T12:56:58;8.03;;;2.47;;
50429;SDS011;36359;41.556;-8.418;2022-11-30T13:02:38;9.03;;;4.80;;
50429;SDS011;36359;41.556;-8.418;2022-11-30T13:05:17;7.63;;;3.30;;
50429;SDS011;36359;41.556;-8.418;2022-11-30T13:07:50;4.70;;;2.50;;
50429;SDS011;36359;41.556;-8.418;2022-11-30T13:10:24;3.63;;;1.53;;
50429;SDS011;36359;41.556;-8.418;2022-11-30T13:13:02;2.43;;;1.30;;
50429;SDS011;36359;41.556;-8.418;2022-11-30T13:15:32;3.70;;;1.63;;
50429;SDS011;36359;41.556;-8.418;2022-11-30T13:17:59;3.70;;;1.73;;
50429;SDS011;36359;41.556;-8.418;2022-11-30T13:23:00;5.10;;;1.50;;
50429;SDS011;36359;41.556;-8.418;2022-11-30T13:25:47;9.18;;;3.90;;
50429;SDS011;36359;41.556;-8.418;2022-11-30T13:28:33;6.17;;;3.37;;
50429;SDS011;36359;41.556;-8.418;2022-11-30T13:31:09;5.73;;;1.63;;
50429;SDS011;36359;41.556;-8.418;2022-11-30T13:33:48;4.43;;;1.83;;
50429;SDS011;36359;41.556;-8.418;2022-11-30T13:41:38;5.30;;;2.07;;
50429;SDS011;36359;41.556;-8.418;2022-11-30T13:46:55;3.50;;;1.60;;
50429;SDS011;36359;41.556;-8.418;2022-11-30T13:51:48;2.77;;;1.40;;
50429;SDS011;36359;41.556;-8.418;2022-11-30T14:00:00;5.30;;;1.97;;
50429;SDS011;36359;41.556;-8.418;2022-11-30T14:02:49;8.37;;;4.07;;
50429;SDS011;36359;41.556;-8.418;2022-11-30T14:05:22;7.23;;;3.80;;
50429;SDS011;36359;41.556;-8.418;2022-11-30T14:08:09;7.90;;;3.57;;
50429;SDS011;36359;41.556;-8.418;2022-11-30T14:13:02;7.37;;;3.97;;
50429;SDS011;36359;41.556;-8.418;2022-11-30T14:21:01;7.97;;;4.20;;
50429;SDS011;36359;41.556;-8.418;2022-11-30T14:26:23;6.83;;;3.47;;
50429;SDS011;36359;41.556;-8.418;2022-11-30T14:29:03;11.40;;;5.07;;
50429;SDS011;36359;41.556;-8.418;2022-11-30T14:31:47;16.02;;;7.95;;
50429;SDS011;36359;41.556;-8.418;2022-11-30T14:34:30;5.20;;;2.10;;
50429;SDS011;36359;41.556;-8.418;2022-11-30T14:40:18;4.90;;;3.00;;
50429;SDS011;36359;41.556;-8.418;2022-11-30T14:42:47;5.50;;;2.90;;
50429;SDS011;36359;41.556;-8.418;2022-11-30T14:45:20;3.30;;;2.13;;
50429;SDS011;36359;41.556;-8.418;2022-11-30T14:47:52;4.60;;;2.07;;
50429;SDS011;36359;41.556;-8.418;2022-11-30T14:50:28;4.43;;;2.33;;
50429;SDS011;36359;41.556;-8.418;2022-11-30T14:53:11;4.67;;;2.03;;
50429;SDS011;36359;41.556;-8.418;2022-11-30T14:55:46;2.33;;;1.50;;
50429;SDS011;36359;41.556;-8.418;2022-11-30T14:58:43;2.40;;;1.47;;
50429;SDS011;36359;41.556;-8.418;2022-11-30T15:01:17;3.23;;;1.53;;
50429;SDS011;36359;41.556;-8.418;2022-11-30T15:03:47;2.45;;;1.10;;
50429;SDS011;36359;41.556;-8.418;2022-11-30T15:06:15;3.03;;;1.50;;
50429;SDS011;36359;41.556;-8.418;2022-11-30T15:08:45;2.27;;;1.30;;
50429;SDS011;36359;41.556;-8.418;2022-11-30T15:11:14;1.60;;;0.73;;
50429;SDS011;36359;41.556;-8.418;2022-11-30T15:13:48;2.37;;;1.10;;
50429;SDS011;36359;41.556;-8.418;2022-11-30T15:16:20;4.27;;;1.43;;
50429;SDS011;36359;41.556;-8.418;2022-11-30T15:18:57;3.30;;;1.60;;
50429;SDS011;36359;41.556;-8.418;2022-11-30T15:21:25;1.83;;;1.13;;
50429;SDS011;36359;41.556;-8.418;2022-11-30T15:23:54;3.30;;;1.93;;
50429;SDS011;36359;41.556;-8.418;2022-11-30T15:28:57;3.53;;;1.60;;
50429;SDS011;36359;41.556;-8.418;2022-11-30T15:31:43;2.63;;;1.27;;
50429;SDS011;36359;41.556;-8.418;2022-11-30T15:34:20;2.38;;;1.20;;
50429;SDS011;36359;41.556;-8.418;2022-11-30T15:36:55;3.00;;;1.77;;
50429;SDS011;36359;41.556;-8.418;2022-11-30T15:39:23;3.10;;;1.67;;
50429;SDS011;36359;41.556;-8.418;2022-11-30T15:41:57;2.30;;;1.10;;
50429;SDS011;36359;41.556;-8.418;2022-11-30T15:44:36;2.90;;;0.97;;
50429;SDS011;36359;41.556;-8.418;2022-11-30T15:47:22;1.60;;;0.90;;
50429;SDS011;36359;41.556;-8.418;2022-11-30T15:49:54;2.00;;;0.90;;
50429;SDS011;36359;41.556;-8.418;2022-11-30T15:52:27;2.20;;;1.20;;
50429;SDS011;36359;41.556;-8.418;2022-11-30T15:54:56;2.33;;;0.70;;
50429;SDS011;36359;41.556;-8.418;2022-11-30T16:00:18;3.50;;;1.20;;
50429;SDS011;36359;41.556;-8.418;2022-11-30T16:02:45;2.70;;;1.23;;
50429;SDS011;36359;41.556;-8.418;2022-11-30T16:07:37;2.57;;;1.10;;
50429;SDS011;36359;41.556;-8.418;2022-11-30T16:10:13;2.03;;;1.20;;
50429;SDS011;36359;41.556;-8.418;2022-11-30T16:12:41;2.53;;;1.50;;
50429;SDS011;36359;41.556;-8.418;2022-11-30T16:17:46;1.57;;;1.00;;
50429;SDS011;36359;41.556;-8.418;2022-11-30T16:20:12;1.57;;;0.60;;
50429;SDS011;36359;41.556;-8.418;2022-11-30T16:22:40;1.77;;;0.90;;
50429;SDS011;36359;41.556;-8.418;2022-11-30T16:25:13;2.43;;;0.90;;
50429;SDS011;36359;41.556;-8.418;2022-11-30T16:27:41;3.27;;;1.10;;
50429;SDS011;36359;41.556;-8.418;2022-11-30T16:30:08;2.83;;;1.00;;
50429;SDS011;36359;41.556;-8.418;2022-11-30T16:32:38;4.30;;;1.23;;
50429;SDS011;36359;41.556;-8.418;2022-11-30T16:35:10;1.90;;;0.80;;
50429;SDS011;36359;41.556;-8.418;2022-11-30T16:37:54;1.63;;;0.40;;
50429;SDS011;36359;41.556;-8.418;2022-11-30T16:40:20;1.17;;;0.47;;
50429;SDS011;36359;41.556;-8.418;2022-11-30T16:42:49;1.00;;;0.50;;
50429;SDS011;36359;41.556;-8.418;2022-11-30T16:45:20;2.03;;;0.60;;
50429;SDS011;36359;41.556;-8.418;2022-11-30T16:47:48;0.80;;;0.40;;